createdAt,value
2019-02-09T00:00:51.252Z,58.13
2019-02-09T00:04:58.327Z,57.86
2019-02-09T00:09:08.305Z,57.65
2019-02-09T00:13:15.157Z,57.71
2019-02-09T00:17:21.994Z,57.58
2019-02-09T00:21:28.866Z,57.59
2019-02-09T00:25:36.043Z,57.45
2019-02-09T00:29:46.430Z,57.68
2019-02-09T00:33:51.700Z,57.84
2019-02-09T00:37:58.665Z,57.70
2019-02-09T00:42:05.704Z,57.78
2019-02-09T00:46:12.590Z,57.85
2019-02-09T00:50:20.348Z,58.58
2019-02-09T00:54:27.225Z,58.59
2019-02-09T00:58:34.261Z,58.79
2019-02-09T01:02:41.313Z,59.82
2019-02-09T01:06:48.331Z,60.38
2019-02-09T01:10:55.252Z,60.68
2019-02-09T01:15:02.241Z,61.20
2019-02-09T01:19:09.407Z,61.29
2019-02-09T01:23:16.507Z,61.54
2019-02-09T01:27:23.801Z,62.28
2019-02-09T01:31:30.646Z,62.96
2019-02-09T01:35:37.472Z,64.49
2019-02-09T01:39:44.362Z,65.86
2019-02-09T01:43:51.379Z,66.95
2019-02-09T01:47:58.349Z,68.06
2019-02-09T01:52:05.512Z,69.61
2019-02-09T01:56:12.359Z,71.16
2019-02-09T02:00:28.022Z,71.91
2019-02-09T02:04:35.030Z,72.06
2019-02-09T02:08:41.978Z,74.05
2019-02-09T02:12:48.999Z,74.29
2019-02-09T02:16:55.870Z,75.63
2019-02-09T02:21:02.744Z,76.75
2019-02-09T02:25:10.017Z,77.78
2019-02-09T02:29:16.925Z,78.15
2019-02-09T02:33:23.774Z,79.23
2019-02-09T02:37:30.607Z,79.54
2019-02-09T02:41:37.449Z,79.17
2019-02-09T02:45:44.257Z,79.34
2019-02-09T02:49:51.119Z,79.59
2019-02-09T02:53:58.187Z,79.17
2019-02-09T02:58:05.469Z,78.87
2019-02-09T03:02:12.396Z,78.39
2019-02-09T03:06:19.276Z,78.20
2019-02-09T03:10:27.329Z,78.13
2019-02-09T03:14:34.297Z,77.32
2019-02-09T03:18:41.065Z,77.61
2019-02-09T03:22:48.174Z,78.33
2019-02-09T03:26:55.160Z,78.27
2019-02-09T03:31:02.075Z,78.05
2019-02-09T03:35:10.651Z,78.22
2019-02-09T03:39:17.506Z,78.26
2019-02-09T03:43:24.464Z,78.38
2019-02-09T03:47:31.345Z,78.68
2019-02-09T03:51:38.179Z,78.71
2019-02-09T03:55:45.039Z,79.06
2019-02-09T03:59:52.089Z,79.10
2019-02-09T04:03:58.938Z,78.94
2019-02-09T04:08:05.949Z,79.21
2019-02-09T04:12:12.787Z,79.48
2019-02-09T04:16:19.597Z,79.71
2019-02-09T04:20:27.222Z,80.82
2019-02-09T04:24:34.057Z,81.00
2019-02-09T04:28:41.282Z,81.32
2019-02-09T04:32:49.477Z,81.01
2019-02-09T04:36:56.397Z,81.01
2019-02-09T04:41:03.254Z,81.59
2019-02-09T04:45:12.165Z,81.79
2019-02-09T04:49:19.024Z,82.44
2019-02-09T04:53:26.052Z,82.67
2019-02-09T04:57:32.923Z,83.44
2019-02-09T05:01:39.906Z,83.49
2019-02-09T05:05:46.790Z,83.38
2019-02-09T05:09:53.779Z,83.46
2019-02-09T05:14:00.770Z,83.18
2019-02-09T05:18:07.772Z,82.53
2019-02-09T05:22:14.647Z,82.35
2019-02-09T05:26:21.452Z,82.24
2019-02-09T05:30:30.473Z,81.93
2019-02-09T05:34:37.288Z,81.94
2019-02-09T05:38:44.488Z,81.50
2019-02-09T05:42:51.386Z,81.25
2019-02-09T05:46:58.187Z,80.93
2019-02-09T05:51:05.040Z,80.41
2019-02-09T05:55:12.229Z,79.21
2019-02-09T05:59:21.919Z,78.46
2019-02-09T06:03:28.801Z,77.25
2019-02-09T06:07:35.722Z,76.75
2019-02-09T06:11:42.574Z,76.65
2019-02-09T06:15:49.403Z,76.95
2019-02-09T06:19:56.249Z,76.79
2019-02-09T06:24:03.108Z,76.46
2019-02-09T06:28:09.929Z,77.43
2019-02-09T06:32:16.746Z,78.97
2019-02-09T06:36:23.674Z,79.60
2019-02-09T06:40:32.570Z,80.03
2019-02-09T06:44:39.424Z,80.12
2019-02-09T06:48:46.517Z,80.50
2019-02-09T06:52:54.530Z,80.95
2019-02-09T06:57:01.582Z,80.83
2019-02-09T07:01:09.025Z,80.52
2019-02-09T07:05:18.823Z,80.18
2019-02-09T07:09:26.025Z,79.38
2019-02-09T07:13:32.900Z,78.43
2019-02-09T07:17:39.883Z,78.35
2019-02-09T07:21:46.764Z,77.97
2019-02-09T07:25:53.883Z,77.06
2019-02-09T07:30:00.897Z,77.08
2019-02-09T07:34:10.253Z,76.51
2019-02-09T07:38:17.175Z,75.50
2019-02-09T07:42:24.130Z,75.49
2019-02-09T07:46:31.125Z,75.42
2019-02-09T07:50:38.077Z,75.31
2019-02-09T07:54:45.215Z,74.91
2019-02-09T07:58:52.361Z,74.16
2019-02-09T08:03:02.698Z,73.83
2019-02-09T08:07:09.623Z,73.90
2019-02-09T08:11:17.294Z,73.32
2019-02-09T08:15:26.777Z,72.45
2019-02-09T08:19:33.800Z,70.94
2019-02-09T08:23:40.760Z,69.17
2019-02-09T08:27:48.000Z,69.20
2019-02-09T08:31:54.845Z,67.79
2019-02-09T08:36:01.729Z,67.63
2019-02-09T08:40:10.565Z,66.30
2019-02-09T08:44:24.125Z,64.63
2019-02-09T08:48:36.841Z,66.21
2019-02-09T08:52:47.535Z,67.70
2019-02-09T08:56:54.983Z,68.01
2019-02-09T09:01:02.166Z,67.72
2019-02-09T09:05:11.650Z,67.98
2019-02-09T09:09:18.714Z,68.46
2019-02-09T09:13:25.763Z,68.42
2019-02-09T09:17:32.717Z,67.95
2019-02-09T09:21:39.613Z,69.04
2019-02-09T09:25:46.504Z,69.20
2019-02-09T09:29:53.695Z,66.43
2019-02-09T09:34:06.654Z,65.23
2019-02-09T09:38:13.511Z,65.56
2019-02-09T09:42:20.396Z,66.27
2019-02-09T09:46:27.477Z,65.52
2019-02-09T09:50:34.792Z,66.35
2019-02-09T09:54:41.759Z,65.69
2019-02-09T09:58:50.262Z,65.29
2019-02-09T10:02:58.209Z,65.08
2019-02-09T10:07:05.247Z,64.88
2019-02-09T10:11:12.057Z,64.55
2019-02-09T10:15:22.448Z,63.66
2019-02-09T10:19:29.260Z,62.63
2019-02-09T10:23:36.117Z,61.97
2019-02-09T10:27:43.092Z,61.57
2019-02-09T10:31:49.937Z,60.68
2019-02-09T10:35:58.906Z,60.40
2019-02-09T10:40:07.519Z,59.87
2019-02-09T10:44:14.464Z,59.73
2019-02-09T10:48:22.935Z,58.04
2019-02-09T10:52:33.337Z,58.43
2019-02-09T10:56:40.233Z,57.39
2019-02-09T11:01:01.607Z,57.89
2019-02-09T11:05:11.352Z,58.40
2019-02-09T11:09:25.482Z,58.68
2019-02-09T11:13:32.744Z,58.41
2019-02-09T11:17:39.631Z,58.53
2019-02-09T11:21:46.788Z,58.83
2019-02-09T11:25:53.632Z,58.60
2019-02-09T11:30:00.695Z,57.74
2019-02-09T11:34:07.991Z,57.80
2019-02-09T11:38:14.868Z,57.58
2019-02-09T11:42:23.099Z,57.19
2019-02-09T11:46:30.295Z,57.29
2019-02-09T11:50:38.650Z,56.88
2019-02-09T11:54:59.927Z,56.70
2019-02-09T11:59:07.326Z,56.51
2019-02-09T12:03:16.101Z,56.82
2019-02-09T12:07:23.983Z,56.67
2019-02-09T12:11:31.287Z,56.73
2019-02-09T12:15:40.240Z,57.53
2019-02-09T12:19:47.129Z,57.99
2019-02-09T12:23:54.232Z,58.24
2019-02-09T12:28:01.316Z,58.79
2019-02-09T12:32:08.492Z,59.08
2019-02-09T12:36:15.473Z,59.58
2019-02-09T12:40:28.548Z,58.85
2019-02-09T12:44:41.147Z,58.14
2019-02-09T12:48:48.595Z,57.64
2019-02-09T12:52:56.130Z,58.73
2019-02-09T12:57:03.064Z,58.63
2019-02-09T13:01:10.012Z,58.64
2019-02-09T13:05:17.165Z,58.27
2019-02-09T13:09:24.042Z,57.80
2019-02-09T13:13:36.094Z,56.00
2019-02-09T13:17:43.044Z,54.44
2019-02-09T13:21:50.009Z,55.02
2019-02-09T13:25:57.048Z,54.97
2019-02-09T13:30:05.037Z,55.40
2019-02-09T13:34:12.439Z,57.05
2019-02-09T13:38:19.506Z,57.79
2019-02-09T13:42:48.927Z,58.44
2019-02-09T13:46:58.689Z,59.35
2019-02-09T13:51:06.416Z,59.04
2019-02-09T13:55:15.705Z,59.57
2019-02-09T13:59:23.676Z,59.67
2019-02-09T14:03:37.599Z,59.51
2019-02-09T14:07:45.148Z,59.45
2019-02-09T14:11:53.354Z,59.21
2019-02-09T14:16:08.200Z,59.61
2019-02-09T14:20:11.303Z,60.02
2019-02-09T14:24:18.187Z,59.86
2019-02-09T14:28:27.130Z,59.53
2019-02-09T14:32:34.134Z,59.50
2019-02-09T14:36:41.339Z,59.24
2019-02-09T14:40:50.994Z,58.48
2019-02-09T14:44:59.913Z,58.13
2019-02-09T14:49:06.914Z,57.73
2019-02-09T14:53:16.353Z,57.63
2019-02-09T14:57:23.631Z,57.98
2019-02-09T15:01:31.771Z,57.77
2019-02-09T15:05:40.037Z,57.79
2019-02-09T15:09:47.401Z,58.48
2019-02-09T15:13:58.160Z,58.59
2019-02-09T15:18:05.734Z,58.30
2019-02-09T15:22:13.694Z,58.17
2019-02-09T15:26:20.889Z,58.38
2019-02-09T15:30:29.718Z,58.73
2019-02-09T15:34:36.632Z,59.24
2019-02-09T15:38:45.444Z,59.79
2019-02-09T15:42:52.531Z,60.21
2019-02-09T15:47:00.070Z,60.77
2019-02-09T15:51:07.135Z,61.80
2019-02-09T15:55:21.283Z,63.33
2019-02-09T15:59:29.973Z,63.78
2019-02-09T16:03:36.963Z,63.77
2019-02-09T16:07:44.121Z,67.19
2019-02-09T16:11:51.172Z,68.54
2019-02-09T16:15:58.138Z,66.93
2019-02-09T16:20:06.335Z,65.75
2019-02-09T16:24:13.316Z,66.02
2019-02-09T16:28:20.169Z,66.05
2019-02-09T16:32:27.058Z,65.71
2019-02-09T16:36:33.946Z,65.50
2019-02-09T16:40:40.917Z,65.38
2019-02-09T16:44:48.271Z,64.59
2019-02-09T16:48:55.371Z,63.93
2019-02-09T16:53:03.692Z,63.80
2019-02-09T16:57:10.790Z,63.96
2019-02-09T17:01:18.208Z,64.04
2019-02-09T17:05:28.478Z,64.25
2019-02-09T17:09:35.392Z,64.75
2019-02-09T17:13:42.535Z,64.55
2019-02-09T17:17:49.390Z,64.06
2019-02-09T17:21:56.337Z,63.80
2019-02-09T17:26:03.216Z,63.80
2019-02-09T17:30:18.927Z,63.54
2019-02-09T17:34:25.886Z,63.68
2019-02-09T17:38:34.514Z,63.78
2019-02-09T17:42:41.823Z,64.28
2019-02-09T17:46:49.194Z,63.92
2019-02-09T17:50:56.108Z,63.78
2019-02-09T17:55:02.973Z,63.76
2019-02-09T17:59:10.068Z,63.74
2019-02-09T18:03:17.966Z,63.93
2019-02-09T18:07:24.840Z,63.91
2019-02-09T18:11:33.271Z,63.80
2019-02-09T18:15:40.281Z,64.13
2019-02-09T18:19:48.403Z,64.30
2019-02-09T18:23:57.644Z,65.50
2019-02-09T18:28:07.716Z,64.87
2019-02-09T18:32:14.996Z,65.06
2019-02-09T18:36:22.308Z,65.89
2019-02-09T18:40:30.145Z,66.25
2019-02-09T18:44:37.045Z,66.91
2019-02-09T18:48:43.897Z,67.22
2019-02-09T18:52:50.830Z,67.47
2019-02-09T18:56:58.152Z,67.15
2019-02-09T19:01:17.960Z,67.70
2019-02-09T19:05:25.240Z,67.79
2019-02-09T19:09:34.113Z,68.46
2019-02-09T19:13:50.074Z,68.41
2019-02-09T19:17:57.632Z,69.11
2019-02-09T19:22:05.125Z,69.22
2019-02-09T19:26:12.862Z,69.32
2019-02-09T19:30:25.820Z,69.39
2019-02-09T19:34:32.951Z,69.37
2019-02-09T19:38:41.040Z,69.24
2019-02-09T19:42:48.858Z,68.88
2019-02-09T19:46:55.716Z,68.86
2019-02-09T19:51:02.761Z,68.71
2019-02-09T19:55:14.472Z,68.26
2019-02-09T19:59:21.366Z,68.22
2019-02-09T20:03:28.431Z,67.94
2019-02-09T20:07:35.453Z,67.89
2019-02-09T20:11:42.400Z,67.74
2019-02-09T20:15:49.311Z,67.71
2019-02-09T20:19:56.404Z,67.58
2019-02-09T20:24:03.238Z,67.45
2019-02-09T20:28:10.109Z,67.42
2019-02-09T20:32:17.069Z,67.45
2019-02-09T20:36:24.090Z,67.71
2019-02-09T20:40:50.691Z,68.17
2019-02-09T20:44:58.980Z,68.27
2019-02-09T20:49:06.229Z,68.38
2019-02-09T20:53:15.368Z,68.65
2019-02-09T20:57:22.489Z,68.46
2019-02-09T21:01:29.735Z,68.94
2019-02-09T21:05:37.069Z,69.36
2019-02-09T21:09:44.103Z,69.22
2019-02-09T21:13:50.998Z,69.66
2019-02-09T21:17:58.091Z,70.21
2019-02-09T21:22:08.459Z,70.28
2019-02-09T21:26:15.463Z,70.16
2019-02-09T21:30:22.496Z,70.82
2019-02-09T21:34:34.880Z,70.99
2019-02-09T21:38:41.876Z,70.99
2019-02-09T21:42:49.165Z,71.49
2019-02-09T21:46:56.094Z,71.67
2019-02-09T21:51:03.364Z,72.07
2019-02-09T21:55:12.382Z,71.80
2019-02-09T21:59:19.669Z,71.99
2019-02-09T22:03:26.683Z,71.92
2019-02-09T22:07:33.571Z,72.21
2019-02-09T22:11:40.569Z,71.82
2019-02-09T22:15:47.600Z,72.36
2019-02-09T22:19:55.271Z,72.15
2019-02-09T22:24:02.337Z,72.24
2019-02-09T22:28:09.258Z,72.30
2019-02-09T22:32:16.188Z,72.42
2019-02-09T22:36:23.609Z,72.09
2019-02-09T22:40:33.321Z,71.78
2019-02-09T22:44:40.307Z,71.90
2019-02-09T22:48:47.143Z,72.13
2019-02-09T22:52:53.945Z,71.78
2019-02-09T22:57:00.917Z,71.68
2019-02-09T23:01:45.825Z,71.78
2019-02-09T23:06:54.056Z,72.40
2019-02-09T23:11:01.137Z,72.00
2019-02-09T23:15:09.646Z,72.20
2019-02-09T23:19:16.662Z,71.95
2019-02-09T23:23:23.552Z,72.21
2019-02-09T23:27:30.641Z,72.44
2019-02-09T23:31:37.564Z,72.70
2019-02-09T23:35:44.483Z,72.31
2019-02-09T23:39:51.437Z,72.42
2019-02-09T23:43:58.225Z,72.27
2019-02-09T23:48:05.071Z,72.04
2019-02-09T23:52:12.405Z,72.36
2019-02-09T23:56:19.320Z,72.21
